sensor_id;sensor_type;location;lat;lon;timestamp;pressure;altitude;pressure_sealevel;temperature;humidity
33781;BME280;20097;50.832;19.100;2023-04-19T00:01:19;98596.00;;;9.77;100.00
33781;BME280;20097;50.832;19.100;2023-04-19T00:06:26;98588.19;;;9.77;100.00
33781;BME280;20097;50.832;19.100;2023-04-19T00:11:32;98584.94;;;9.76;100.00
33781;BME280;20097;50.832;19.100;2023-04-19T00:16:36;98589.19;;;9.77;100.00
33781;BME280;20097;50.832;19.100;2023-04-19T00:21:41;98568.97;;;9.70;100.00
33781;BME280;20097;50.832;19.100;2023-04-19T00:26:45;98566.03;;;9.65;100.00
33781;BME280;20097;50.832;19.100;2023-04-19T00:31:49;98559.50;;;9.69;100.00
33781;BME280;20097;50.832;19.100;2023-04-19T00:36:56;98546.97;;;9.65;100.00
33781;BME280;20097;50.832;19.100;2023-04-19T00:42:00;98539.97;;;9.57;100.00
33781;BME280;20097;50.832;19.100;2023-04-19T00:47:04;98537.34;;;9.57;100.00
33781;BME280;20097;50.832;19.100;2023-04-19T00:52:10;98529.69;;;9.48;100.00
33781;BME280;20097;50.832;19.100;2023-04-19T00:57:15;98524.31;;;9.49;100.00
33781;BME280;20097;50.832;19.100;2023-04-19T01:02:20;98519.41;;;9.46;100.00
33781;BME280;20097;50.832;19.100;2023-04-19T01:07:26;98508.84;;;9.40;100.00
33781;BME280;20097;50.832;19.100;2023-04-19T01:12:30;98511.56;;;9.30;100.00
33781;BME280;20097;50.832;19.100;2023-04-19T01:17:34;98501.31;;;9.29;100.00
33781;BME280;20097;50.832;19.100;2023-04-19T01:22:41;98501.47;;;9.19;100.00
33781;BME280;20097;50.832;19.100;2023-04-19T01:27:45;98503.41;;;9.17;100.00
33781;BME280;20097;50.832;19.100;2023-04-19T01:32:50;98502.28;;;9.20;100.00
33781;BME280;20097;50.832;19.100;2023-04-19T01:37:56;98504.72;;;9.21;100.00
33781;BME280;20097;50.832;19.100;2023-04-19T01:43:00;98497.56;;;9.15;100.00
33781;BME280;20097;50.832;19.100;2023-04-19T01:48:05;98492.03;;;9.18;100.00
33781;BME280;20097;50.832;19.100;2023-04-19T01:53:11;98472.31;;;9.16;100.00
33781;BME280;20097;50.832;19.100;2023-04-19T01:58:16;98473.94;;;9.09;100.00
33781;BME280;20097;50.832;19.100;2023-04-19T02:03:20;98489.06;;;9.05;100.00
33781;BME280;20097;50.832;19.100;2023-04-19T02:08:25;98478.66;;;9.05;100.00
33781;BME280;20097;50.832;19.100;2023-04-19T02:13:30;98479.16;;;9.09;100.00
33781;BME280;20097;50.832;19.100;2023-04-19T02:18:34;98478.00;;;9.11;100.00
33781;BME280;20097;50.832;19.100;2023-04-19T02:23:41;98476.72;;;9.07;100.00
33781;BME280;20097;50.832;19.100;2023-04-19T02:28:45;98471.81;;;9.04;100.00
33781;BME280;20097;50.832;19.100;2023-04-19T02:33:50;98463.19;;;8.96;100.00
33781;BME280;20097;50.832;19.100;2023-04-19T02:38:55;98459.91;;;8.94;100.00
33781;BME280;20097;50.832;19.100;2023-04-19T02:44:00;98456.16;;;8.96;100.00
33781;BME280;20097;50.832;19.100;2023-04-19T02:49:05;98454.22;;;8.90;100.00
33781;BME280;20097;50.832;19.100;2023-04-19T02:54:11;98444.28;;;8.86;100.00
33781;BME280;20097;50.832;19.100;2023-04-19T02:59:18;98439.25;;;8.84;100.00
33781;BME280;20097;50.832;19.100;2023-04-19T03:04:22;98416.13;;;8.73;100.00
33781;BME280;20097;50.832;19.100;2023-04-19T03:09:28;98419.03;;;8.78;100.00
33781;BME280;20097;50.832;19.100;2023-04-19T03:14:33;98415.28;;;8.73;100.00
33781;BME280;20097;50.832;19.100;2023-04-19T03:19:37;98415.94;;;8.67;100.00
33781;BME280;20097;50.832;19.100;2023-04-19T03:24:43;98406.63;;;8.56;100.00
33781;BME280;20097;50.832;19.100;2023-04-19T03:29:55;98403.47;;;8.37;100.00
33781;BME280;20097;50.832;19.100;2023-04-19T03:35:00;98401.34;;;8.32;100.00
33781;BME280;20097;50.832;19.100;2023-04-19T03:40:07;98380.34;;;8.25;100.00
33781;BME280;20097;50.832;19.100;2023-04-19T03:45:12;98391.16;;;8.13;100.00
33781;BME280;20097;50.832;19.100;2023-04-19T03:50:21;98380.66;;;7.97;100.00
33781;BME280;20097;50.832;19.100;2023-04-19T03:55:30;98392.72;;;7.98;100.00
33781;BME280;20097;50.832;19.100;2023-04-19T04:00:36;98380.28;;;7.84;100.00
33781;BME280;20097;50.832;19.100;2023-04-19T04:05:40;98378.25;;;7.70;100.00
33781;BME280;20097;50.832;19.100;2023-04-19T04:10:46;98377.75;;;7.66;100.00
33781;BME280;20097;50.832;19.100;2023-04-19T04:15:50;98387.56;;;7.55;100.00
33781;BME280;20097;50.832;19.100;2023-04-19T04:20:55;98376.53;;;7.35;100.00
33781;BME280;20097;50.832;19.100;2023-04-19T04:26:01;98381.53;;;7.29;100.00
33781;BME280;20097;50.832;19.100;2023-04-19T04:31:25;98389.94;;;7.23;100.00
33781;BME280;20097;50.832;19.100;2023-04-19T04:36:30;98385.50;;;7.15;100.00
33781;BME280;20097;50.832;19.100;2023-04-19T04:41:37;98383.44;;;7.19;100.00
33781;BME280;20097;50.832;19.100;2023-04-19T04:46:44;98397.66;;;7.15;100.00
33781;BME280;20097;50.832;19.100;2023-04-19T04:51:53;98394.06;;;7.16;100.00
33781;BME280;20097;50.832;19.100;2023-04-19T04:57:00;98401.22;;;7.14;100.00
33781;BME280;20097;50.832;19.100;2023-04-19T05:02:05;98400.91;;;7.17;100.00
33781;BME280;20097;50.832;19.100;2023-04-19T05:07:09;98397.56;;;7.24;100.00
33781;BME280;20097;50.832;19.100;2023-04-19T05:12:15;98398.44;;;7.33;100.00
33781;BME280;20097;50.832;19.100;2023-04-19T05:17:19;98386.66;;;7.38;100.00
33781;BME280;20097;50.832;19.100;2023-04-19T05:22:23;98396.88;;;7.40;100.00
33781;BME280;20097;50.832;19.100;2023-04-19T05:27:30;98388.78;;;7.43;100.00
33781;BME280;20097;50.832;19.100;2023-04-19T05:32:34;98390.69;;;7.58;100.00
33781;BME280;20097;50.832;19.100;2023-04-19T05:37:40;98392.81;;;7.63;100.00
33781;BME280;20097;50.832;19.100;2023-04-19T05:42:46;98382.56;;;7.61;100.00
33781;BME280;20097;50.832;19.100;2023-04-19T05:47:50;98390.56;;;7.68;100.00
33781;BME280;20097;50.832;19.100;2023-04-19T05:53:13;98389.75;;;7.42;100.00
33781;BME280;20097;50.832;19.100;2023-04-19T05:58:20;98382.28;;;7.21;100.00
33781;BME280;20097;50.832;19.100;2023-04-19T06:03:25;98371.25;;;7.02;100.00
33781;BME280;20097;50.832;19.100;2023-04-19T06:08:33;98373.47;;;6.96;100.00
33781;BME280;20097;50.832;19.100;2023-04-19T06:13:39;98371.50;;;6.90;100.00
33781;BME280;20097;50.832;19.100;2023-04-19T06:18:44;98370.44;;;6.66;100.00
33781;BME280;20097;50.832;19.100;2023-04-19T06:23:48;98365.84;;;6.77;100.00
33781;BME280;20097;50.832;19.100;2023-04-19T06:28:53;98369.63;;;6.65;100.00
33781;BME280;20097;50.832;19.100;2023-04-19T06:33:57;98365.94;;;6.68;100.00
33781;BME280;20097;50.832;19.100;2023-04-19T06:39:02;98366.38;;;6.63;100.00
33781;BME280;20097;50.832;19.100;2023-04-19T06:44:07;98369.69;;;6.56;100.00
33781;BME280;20097;50.832;19.100;2023-04-19T06:49:11;98364.63;;;6.37;100.00
33781;BME280;20097;50.832;19.100;2023-04-19T06:54:15;98374.84;;;6.38;100.00
33781;BME280;20097;50.832;19.100;2023-04-19T06:59:21;98368.06;;;6.37;100.00
33781;BME280;20097;50.832;19.100;2023-04-19T07:04:25;98371.41;;;6.20;100.00
33781;BME280;20097;50.832;19.100;2023-04-19T07:09:29;98367.56;;;6.24;100.00
33781;BME280;20097;50.832;19.100;2023-04-19T07:14:35;98375.53;;;6.13;100.00
33781;BME280;20097;50.832;19.100;2023-04-19T07:19:38;98363.91;;;6.17;100.00
33781;BME280;20097;50.832;19.100;2023-04-19T07:24:44;98365.25;;;6.21;100.00
33781;BME280;20097;50.832;19.100;2023-04-19T07:29:50;98367.34;;;6.08;100.00
33781;BME280;20097;50.832;19.100;2023-04-19T07:34:54;98370.25;;;6.05;100.00
33781;BME280;20097;50.832;19.100;2023-04-19T07:39:58;98380.06;;;6.02;100.00
33781;BME280;20097;50.832;19.100;2023-04-19T07:45:04;98378.94;;;6.14;100.00
33781;BME280;20097;50.832;19.100;2023-04-19T07:50:09;98380.06;;;6.11;100.00
33781;BME280;20097;50.832;19.100;2023-04-19T07:55:14;98381.00;;;6.10;100.00
33781;BME280;20097;50.832;19.100;2023-04-19T08:00:21;98382.66;;;6.11;100.00
33781;BME280;20097;50.832;19.100;2023-04-19T08:05:25;98386.84;;;6.12;100.00
33781;BME280;20097;50.832;19.100;2023-04-19T08:10:29;98391.06;;;6.23;100.00
33781;BME280;20097;50.832;19.100;2023-04-19T08:15:35;98368.22;;;6.26;100.00
33781;BME280;20097;50.832;19.100;2023-04-19T08:20:58;98374.72;;;6.40;100.00
33781;BME280;20097;50.832;19.100;2023-04-19T08:26:03;98372.84;;;6.32;100.00
33781;BME280;20097;50.832;19.100;2023-04-19T08:31:09;98379.66;;;6.33;100.00
33781;BME280;20097;50.832;19.100;2023-04-19T08:36:13;98377.97;;;6.42;100.00
33781;BME280;20097;50.832;19.100;2023-04-19T08:41:23;98373.50;;;6.61;100.00
33781;BME280;20097;50.832;19.100;2023-04-19T08:46:31;98379.63;;;6.60;100.00
33781;BME280;20097;50.832;19.100;2023-04-19T08:51:35;98370.75;;;6.80;100.00
33781;BME280;20097;50.832;19.100;2023-04-19T08:56:40;98379.34;;;6.81;100.00
33781;BME280;20097;50.832;19.100;2023-04-19T09:01:46;98375.69;;;7.09;100.00
33781;BME280;20097;50.832;19.100;2023-04-19T09:06:50;98375.63;;;7.19;100.00
33781;BME280;20097;50.832;19.100;2023-04-19T09:11:54;98367.75;;;7.28;100.00
33781;BME280;20097;50.832;19.100;2023-04-19T09:17:12;98368.34;;;7.22;100.00
33781;BME280;20097;50.832;19.100;2023-04-19T09:22:20;98367.44;;;7.31;100.00
33781;BME280;20097;50.832;19.100;2023-04-19T09:27:26;98364.19;;;7.29;100.00
33781;BME280;20097;50.832;19.100;2023-04-19T09:32:45;98368.84;;;7.69;100.00
33781;BME280;20097;50.832;19.100;2023-04-19T09:37:59;98365.50;;;7.84;100.00
33781;BME280;20097;50.832;19.100;2023-04-19T09:43:08;98360.09;;;7.78;100.00
33781;BME280;20097;50.832;19.100;2023-04-19T09:48:34;98359.28;;;7.77;100.00
33781;BME280;20097;50.832;19.100;2023-04-19T09:53:38;98358.75;;;7.66;100.00
33781;BME280;20097;50.832;19.100;2023-04-19T09:58:43;98364.84;;;7.57;100.00
33781;BME280;20097;50.832;19.100;2023-04-19T10:03:55;98362.16;;;7.66;100.00
33781;BME280;20097;50.832;19.100;2023-04-19T10:09:17;98363.13;;;7.99;100.00
33781;BME280;20097;50.832;19.100;2023-04-19T10:14:22;98365.16;;;8.13;100.00
33781;BME280;20097;50.832;19.100;2023-04-19T10:19:28;98360.22;;;8.27;100.00
33781;BME280;20097;50.832;19.100;2023-04-19T10:24:32;98359.13;;;8.46;100.00
33781;BME280;20097;50.832;19.100;2023-04-19T10:29:56;98360.06;;;8.29;100.00
33781;BME280;20097;50.832;19.100;2023-04-19T10:35:05;98365.94;;;8.39;100.00
33781;BME280;20097;50.832;19.100;2023-04-19T10:40:10;98364.75;;;8.25;100.00
33781;BME280;20097;50.832;19.100;2023-04-19T10:45:30;98369.97;;;8.00;100.00
33781;BME280;20097;50.832;19.100;2023-04-19T10:50:58;98377.16;;;8.06;100.00
33781;BME280;20097;50.832;19.100;2023-04-19T10:56:03;98375.09;;;8.17;100.00
33781;BME280;20097;50.832;19.100;2023-04-19T11:01:31;98368.75;;;8.20;100.00
33781;BME280;20097;50.832;19.100;2023-04-19T11:06:38;98371.75;;;8.33;100.00
33781;BME280;20097;50.832;19.100;2023-04-19T11:12:01;98364.09;;;8.23;100.00
33781;BME280;20097;50.832;19.100;2023-04-19T11:17:13;98367.38;;;8.33;100.00
33781;BME280;20097;50.832;19.100;2023-04-19T11:22:23;98369.22;;;8.15;100.00
33781;BME280;20097;50.832;19.100;2023-04-19T11:27:28;98372.56;;;8.25;100.00
33781;BME280;20097;50.832;19.100;2023-04-19T11:32:33;98372.41;;;8.27;100.00
33781;BME280;20097;50.832;19.100;2023-04-19T11:37:39;98376.56;;;8.62;100.00
33781;BME280;20097;50.832;19.100;2023-04-19T11:42:43;98379.78;;;8.56;100.00
33781;BME280;20097;50.832;19.100;2023-04-19T11:47:48;98376.88;;;8.59;100.00
33781;BME280;20097;50.832;19.100;2023-04-19T11:52:54;98376.22;;;8.49;100.00
33781;BME280;20097;50.832;19.100;2023-04-19T11:57:58;98376.25;;;8.23;100.00
33781;BME280;20097;50.832;19.100;2023-04-19T12:03:02;98373.44;;;8.50;100.00
33781;BME280;20097;50.832;19.100;2023-04-19T12:08:09;98377.91;;;8.24;100.00
33781;BME280;20097;50.832;19.100;2023-04-19T12:13:17;98374.38;;;8.41;100.00
33781;BME280;20097;50.832;19.100;2023-04-19T12:18:21;98375.41;;;8.56;100.00
33781;BME280;20097;50.832;19.100;2023-04-19T12:23:27;98381.09;;;8.52;100.00
33781;BME280;20097;50.832;19.100;2023-04-19T12:28:31;98382.25;;;8.65;100.00
33781;BME280;20097;50.832;19.100;2023-04-19T12:33:35;98383.22;;;8.64;100.00
33781;BME280;20097;50.832;19.100;2023-04-19T12:38:41;98377.81;;;8.50;100.00
33781;BME280;20097;50.832;19.100;2023-04-19T12:43:45;98377.19;;;8.56;100.00
33781;BME280;20097;50.832;19.100;2023-04-19T12:48:50;98383.91;;;8.66;100.00
33781;BME280;20097;50.832;19.100;2023-04-19T12:53:55;98385.00;;;8.64;100.00
33781;BME280;20097;50.832;19.100;2023-04-19T12:58:59;98384.34;;;8.54;100.00
33781;BME280;20097;50.832;19.100;2023-04-19T13:04:04;98383.72;;;8.68;100.00
33781;BME280;20097;50.832;19.100;2023-04-19T13:09:11;98373.81;;;8.71;100.00
33781;BME280;20097;50.832;19.100;2023-04-19T13:14:17;98382.78;;;8.85;100.00
33781;BME280;20097;50.832;19.100;2023-04-19T13:19:21;98387.84;;;8.94;100.00
33781;BME280;20097;50.832;19.100;2023-04-19T13:24:26;98389.00;;;9.16;100.00
33781;BME280;20097;50.832;19.100;2023-04-19T13:29:30;98388.47;;;8.96;100.00
33781;BME280;20097;50.832;19.100;2023-04-19T13:34:35;98392.06;;;8.87;100.00
33781;BME280;20097;50.832;19.100;2023-04-19T13:39:41;98390.41;;;8.78;100.00
33781;BME280;20097;50.832;19.100;2023-04-19T13:44:45;98383.09;;;8.82;100.00
33781;BME280;20097;50.832;19.100;2023-04-19T13:49:52;98388.78;;;8.69;100.00
33781;BME280;20097;50.832;19.100;2023-04-19T13:54:57;98388.72;;;8.53;100.00
33781;BME280;20097;50.832;19.100;2023-04-19T14:00:02;98385.94;;;8.47;100.00
33781;BME280;20097;50.832;19.100;2023-04-19T14:05:08;98388.97;;;8.00;100.00
33781;BME280;20097;50.832;19.100;2023-04-19T14:10:15;98380.97;;;7.94;100.00
33781;BME280;20097;50.832;19.100;2023-04-19T14:15:19;98391.75;;;8.07;100.00
33781;BME280;20097;50.832;19.100;2023-04-19T14:20:24;98393.22;;;8.01;100.00
33781;BME280;20097;50.832;19.100;2023-04-19T14:25:30;98392.09;;;8.04;100.00
33781;BME280;20097;50.832;19.100;2023-04-19T14:30:34;98394.00;;;8.02;100.00
33781;BME280;20097;50.832;19.100;2023-04-19T14:35:40;98401.25;;;8.16;100.00
33781;BME280;20097;50.832;19.100;2023-04-19T14:40:47;98397.59;;;8.01;100.00
33781;BME280;20097;50.832;19.100;2023-04-19T14:45:51;98400.50;;;7.98;100.00
33781;BME280;20097;50.832;19.100;2023-04-19T14:50:55;98400.03;;;8.02;100.00
33781;BME280;20097;50.832;19.100;2023-04-19T14:56:03;98402.13;;;7.99;100.00
33781;BME280;20097;50.832;19.100;2023-04-19T15:01:11;98410.75;;;7.99;100.00
33781;BME280;20097;50.832;19.100;2023-04-19T15:06:15;98405.06;;;8.04;100.00
33781;BME280;20097;50.832;19.100;2023-04-19T15:11:21;98402.16;;;8.07;100.00
33781;BME280;20097;50.832;19.100;2023-04-19T15:16:25;98406.56;;;8.06;100.00
33781;BME280;20097;50.832;19.100;2023-04-19T15:21:30;98407.56;;;8.13;100.00
33781;BME280;20097;50.832;19.100;2023-04-19T15:26:35;98410.16;;;8.13;100.00
33781;BME280;20097;50.832;19.100;2023-04-19T15:31:40;98416.19;;;8.14;100.00
33781;BME280;20097;50.832;19.100;2023-04-19T15:36:45;98413.25;;;8.17;100.00
33781;BME280;20097;50.832;19.100;2023-04-19T15:41:50;98422.00;;;8.08;100.00
33781;BME280;20097;50.832;19.100;2023-04-19T15:46:54;98420.09;;;8.18;100.00
33781;BME280;20097;50.832;19.100;2023-04-19T15:51:58;98418.97;;;8.20;100.00
33781;BME280;20097;50.832;19.100;2023-04-19T15:57:04;98425.38;;;8.26;100.00
33781;BME280;20097;50.832;19.100;2023-04-19T16:02:08;98427.59;;;8.21;100.00
33781;BME280;20097;50.832;19.100;2023-04-19T16:07:13;98433.56;;;8.13;100.00
33781;BME280;20097;50.832;19.100;2023-04-19T16:12:18;98434.72;;;8.19;100.00
33781;BME280;20097;50.832;19.100;2023-04-19T16:17:23;98422.66;;;8.10;100.00
33781;BME280;20097;50.832;19.100;2023-04-19T16:22:28;98431.91;;;8.04;100.00
33781;BME280;20097;50.832;19.100;2023-04-19T16:27:34;98443.34;;;7.94;100.00
33781;BME280;20097;50.832;19.100;2023-04-19T16:32:39;98436.13;;;8.05;100.00
33781;BME280;20097;50.832;19.100;2023-04-19T16:37:44;98436.22;;;7.96;100.00
33781;BME280;20097;50.832;19.100;2023-04-19T16:42:50;98443.97;;;7.88;100.00
33781;BME280;20097;50.832;19.100;2023-04-19T16:47:55;98447.44;;;7.96;100.00
33781;BME280;20097;50.832;19.100;2023-04-19T16:53:00;98443.19;;;7.95;100.00
33781;BME280;20097;50.832;19.100;2023-04-19T16:58:06;98447.81;;;8.01;100.00
33781;BME280;20097;50.832;19.100;2023-04-19T17:03:11;98454.97;;;8.07;100.00
33781;BME280;20097;50.832;19.100;2023-04-19T17:08:16;98457.84;;;7.96;100.00
33781;BME280;20097;50.832;19.100;2023-04-19T17:13:23;98460.66;;;8.03;100.00
33781;BME280;20097;50.832;19.100;2023-04-19T17:18:29;98472.97;;;8.01;100.00
33781;BME280;20097;50.832;19.100;2023-04-19T17:23:34;98471.19;;;8.01;100.00
33781;BME280;20097;50.832;19.100;2023-04-19T17:28:41;98477.44;;;7.91;100.00
33781;BME280;20097;50.832;19.100;2023-04-19T17:33:46;98475.69;;;7.91;100.00
33781;BME280;20097;50.832;19.100;2023-04-19T17:38:51;98480.66;;;7.85;100.00
33781;BME280;20097;50.832;19.100;2023-04-19T17:43:57;98483.78;;;7.88;100.00
33781;BME280;20097;50.832;19.100;2023-04-19T17:49:02;98486.53;;;7.69;100.00
33781;BME280;20097;50.832;19.100;2023-04-19T17:54:06;98497.75;;;7.70;100.00
33781;BME280;20097;50.832;19.100;2023-04-19T17:59:12;98502.78;;;7.71;100.00
33781;BME280;20097;50.832;19.100;2023-04-19T18:04:18;98504.28;;;7.74;100.00
33781;BME280;20097;50.832;19.100;2023-04-19T18:09:22;98517.16;;;7.58;100.00
33781;BME280;20097;50.832;19.100;2023-04-19T18:14:28;98526.63;;;7.67;100.00
33781;BME280;20097;50.832;19.100;2023-04-19T18:19:33;98531.09;;;7.57;100.00
33781;BME280;20097;50.832;19.100;2023-04-19T18:24:38;98523.66;;;7.62;100.00
33781;BME280;20097;50.832;19.100;2023-04-19T18:29:49;98526.94;;;7.64;100.00
33781;BME280;20097;50.832;19.100;2023-04-19T18:34:53;98527.25;;;7.61;100.00
33781;BME280;20097;50.832;19.100;2023-04-19T18:39:57;98529.53;;;7.64;100.00
33781;BME280;20097;50.832;19.100;2023-04-19T18:45:04;98523.75;;;7.52;100.00
33781;BME280;20097;50.832;19.100;2023-04-19T18:50:09;98527.22;;;7.43;100.00
33781;BME280;20097;50.832;19.100;2023-04-19T18:55:13;98531.69;;;7.33;100.00
33781;BME280;20097;50.832;19.100;2023-04-19T19:00:19;98530.13;;;7.40;100.00
33781;BME280;20097;50.832;19.100;2023-04-19T19:05:23;98523.22;;;7.31;100.00
33781;BME280;20097;50.832;19.100;2023-04-19T19:10:28;98531.09;;;7.22;100.00
33781;BME280;20097;50.832;19.100;2023-04-19T19:15:37;98513.22;;;7.19;100.00
33781;BME280;20097;50.832;19.100;2023-04-19T19:20:42;98513.94;;;7.11;100.00
33781;BME280;20097;50.832;19.100;2023-04-19T19:25:48;98508.06;;;7.09;100.00
33781;BME280;20097;50.832;19.100;2023-04-19T19:30:53;98525.44;;;7.09;100.00
33781;BME280;20097;50.832;19.100;2023-04-19T19:35:58;98525.28;;;7.10;100.00
33781;BME280;20097;50.832;19.100;2023-04-19T19:41:04;98527.06;;;7.10;100.00
33781;BME280;20097;50.832;19.100;2023-04-19T19:46:12;98529.19;;;6.96;100.00
33781;BME280;20097;50.832;19.100;2023-04-19T19:51:17;98529.47;;;6.93;100.00
33781;BME280;20097;50.832;19.100;2023-04-19T19:56:41;98539.41;;;6.98;100.00
33781;BME280;20097;50.832;19.100;2023-04-19T20:02:07;98549.34;;;7.03;100.00
33781;BME280;20097;50.832;19.100;2023-04-19T20:07:11;98554.22;;;7.15;100.00
33781;BME280;20097;50.832;19.100;2023-04-19T20:12:18;98549.09;;;7.06;100.00
33781;BME280;20097;50.832;19.100;2023-04-19T20:17:24;98553.69;;;7.12;100.00
33781;BME280;20097;50.832;19.100;2023-04-19T20:22:28;98546.28;;;7.17;100.00
33781;BME280;20097;50.832;19.100;2023-04-19T20:27:32;98546.97;;;7.19;100.00
33781;BME280;20097;50.832;19.100;2023-04-19T20:32:38;98535.69;;;7.28;100.00
33781;BME280;20097;50.832;19.100;2023-04-19T20:37:45;98546.75;;;7.30;100.00
33781;BME280;20097;50.832;19.100;2023-04-19T20:42:49;98543.25;;;7.21;100.00
33781;BME280;20097;50.832;19.100;2023-04-19T20:47:55;98540.88;;;7.28;100.00
33781;BME280;20097;50.832;19.100;2023-04-19T20:53:00;98548.50;;;7.29;100.00
33781;BME280;20097;50.832;19.100;2023-04-19T20:58:04;98540.50;;;7.23;100.00
33781;BME280;20097;50.832;19.100;2023-04-19T21:03:09;98542.94;;;7.24;100.00
33781;BME280;20097;50.832;19.100;2023-04-19T21:08:13;98553.63;;;7.21;100.00
33781;BME280;20097;50.832;19.100;2023-04-19T21:13:20;98545.44;;;7.16;100.00
33781;BME280;20097;50.832;19.100;2023-04-19T21:18:25;98544.63;;;7.16;100.00
33781;BME280;20097;50.832;19.100;2023-04-19T21:23:31;98554.66;;;7.11;100.00
33781;BME280;20097;50.832;19.100;2023-04-19T21:28:36;98543.63;;;7.26;100.00
33781;BME280;20097;50.832;19.100;2023-04-19T21:33:42;98548.44;;;7.21;100.00
33781;BME280;20097;50.832;19.100;2023-04-19T21:38:46;98546.75;;;7.30;100.00
33781;BME280;20097;50.832;19.100;2023-04-19T21:43:50;98550.00;;;7.32;100.00
33781;BME280;20097;50.832;19.100;2023-04-19T21:48:55;98554.22;;;7.33;100.00
33781;BME280;20097;50.832;19.100;2023-04-19T21:54:00;98546.44;;;7.33;100.00
33781;BME280;20097;50.832;19.100;2023-04-19T21:59:04;98548.19;;;7.15;100.00
33781;BME280;20097;50.832;19.100;2023-04-19T22:04:09;98553.09;;;7.18;100.00
33781;BME280;20097;50.832;19.100;2023-04-19T22:09:16;98559.50;;;7.23;100.00
33781;BME280;20097;50.832;19.100;2023-04-19T22:14:20;98557.25;;;7.11;100.00
33781;BME280;20097;50.832;19.100;2023-04-19T22:19:27;98555.44;;;7.11;100.00
33781;BME280;20097;50.832;19.100;2023-04-19T22:24:31;98551.91;;;7.12;100.00
33781;BME280;20097;50.832;19.100;2023-04-19T22:29:43;98553.00;;;7.10;100.00
33781;BME280;20097;50.832;19.100;2023-04-19T22:34:48;98546.63;;;7.04;100.00
33781;BME280;20097;50.832;19.100;2023-04-19T22:39:52;98550.69;;;7.07;100.00
33781;BME280;20097;50.832;19.100;2023-04-19T22:44:56;98541.38;;;7.14;100.00
33781;BME280;20097;50.832;19.100;2023-04-19T22:50:02;98549.22;;;7.04;100.00
33781;BME280;20097;50.832;19.100;2023-04-19T22:55:06;98539.66;;;7.05;100.00
33781;BME280;20097;50.832;19.100;2023-04-19T23:00:12;98537.81;;;7.15;100.00
33781;BME280;20097;50.832;19.100;2023-04-19T23:05:18;98532.31;;;7.18;100.00
33781;BME280;20097;50.832;19.100;2023-04-19T23:10:22;98542.31;;;7.13;100.00
33781;BME280;20097;50.832;19.100;2023-04-19T23:15:27;98548.78;;;7.09;100.00
33781;BME280;20097;50.832;19.100;2023-04-19T23:20:33;98544.63;;;7.16;100.00
33781;BME280;20097;50.832;19.100;2023-04-19T23:25:40;98543.53;;;7.18;100.00
33781;BME280;20097;50.832;19.100;2023-04-19T23:30:45;98543.97;;;7.14;100.00
33781;BME280;20097;50.832;19.100;2023-04-19T23:35:51;98544.63;;;7.16;100.00
33781;BME280;20097;50.832;19.100;2023-04-19T23:40:55;98536.94;;;7.24;100.00
33781;BME280;20097;50.832;19.100;2023-04-19T23:45:59;98528.19;;;7.25;100.00
33781;BME280;20097;50.832;19.100;2023-04-19T23:51:05;98529.50;;;7.29;100.00
33781;BME280;20097;50.832;19.100;2023-04-19T23:56:09;98530.63;;;7.26;100.00
